createdAt,value
2022-10-22T00:00:14.751Z,10.48
2022-10-22T00:02:43.078Z,8.23
2022-10-22T00:05:10.898Z,10.10
2022-10-22T00:07:38.641Z,11.77
2022-10-22T00:10:07.657Z,10.93
2022-10-22T00:12:35.082Z,10.13
2022-10-22T00:15:03.301Z,10.75
2022-10-22T00:17:30.846Z,13.82
2022-10-22T00:19:58.106Z,11.00
2022-10-22T00:22:25.372Z,11.18
2022-10-22T00:24:52.922Z,10.65
2022-10-22T00:27:20.211Z,8.38
2022-10-22T00:29:47.999Z,12.20
2022-10-22T00:32:15.613Z,10.40
2022-10-22T00:34:42.975Z,11.75
2022-10-22T00:37:10.262Z,9.52
2022-10-22T00:39:38.004Z,9.88
2022-10-22T00:42:05.336Z,9.23
2022-10-22T00:44:58.416Z,10.32
2022-10-22T00:47:28.624Z,10.43
2022-10-22T00:49:56.341Z,11.43
2022-10-22T00:52:23.755Z,13.90
2022-10-22T00:54:52.043Z,9.45
2022-10-22T00:57:20.368Z,9.95
2022-10-22T00:59:48.280Z,11.30
2022-10-22T01:02:16.221Z,10.57
2022-10-22T01:04:43.577Z,11.63
2022-10-22T01:07:18.182Z,9.85
2022-10-22T01:10:04.300Z,8.95
2022-10-22T01:12:42.078Z,11.98
2022-10-22T01:16:11.776Z,11.43
2022-10-22T01:18:58.293Z,12.80
2022-10-22T01:21:34.747Z,11.20
2022-10-22T01:24:12.012Z,11.52
2022-10-22T01:26:57.437Z,13.95
2022-10-22T01:29:26.366Z,12.85
2022-10-22T01:32:00.723Z,14.75
2022-10-22T01:34:29.302Z,12.15
2022-10-22T01:36:57.885Z,12.65
2022-10-22T01:39:27.311Z,9.73
2022-10-22T01:41:56.196Z,10.23
2022-10-22T01:44:27.934Z,8.23
2022-10-22T01:47:30.464Z,12.32
2022-10-22T01:50:17.051Z,10.80
2022-10-22T01:52:54.694Z,11.45
2022-10-22T01:55:30.323Z,14.32
2022-10-22T01:58:07.624Z,15.70
2022-10-22T02:00:38.119Z,16.33
2022-10-22T02:03:22.777Z,12.73
2022-10-22T02:06:04.414Z,11.70
2022-10-22T02:08:33.766Z,11.40
2022-10-22T02:11:01.521Z,10.65
2022-10-22T02:13:36.805Z,26.80
2022-10-22T02:16:07.112Z,12.80
2022-10-22T02:18:38.768Z,10.02
2022-10-22T02:26:31.663Z,14.23
2022-10-22T02:29:22.262Z,10.43
2022-10-22T02:31:51.073Z,16.83
2022-10-22T02:34:22.542Z,10.48
2022-10-22T02:36:50.703Z,14.45
2022-10-22T02:39:19.234Z,11.95
2022-10-22T02:41:46.556Z,10.82
2022-10-22T02:44:14.454Z,15.32
2022-10-22T02:46:43.071Z,11.07
2022-10-22T02:49:10.359Z,10.85
2022-10-22T02:51:37.927Z,9.75
2022-10-22T02:54:05.568Z,11.23
2022-10-22T02:56:32.975Z,13.05
2022-10-22T02:59:00.511Z,10.88
2022-10-22T03:01:27.794Z,12.60
2022-10-22T03:03:55.084Z,11.05
2022-10-22T03:06:22.691Z,10.57
2022-10-22T03:08:50.153Z,9.48
2022-10-22T03:11:17.504Z,12.93
2022-10-22T03:13:45.047Z,10.82
2022-10-22T03:16:12.383Z,10.30
2022-10-22T03:18:39.659Z,11.80
2022-10-22T03:21:13.961Z,9.30
2022-10-22T03:23:42.103Z,8.15
2022-10-22T03:26:10.759Z,10.55
2022-10-22T03:28:39.984Z,11.07
2022-10-22T03:31:07.335Z,13.15
2022-10-22T03:33:34.912Z,10.55
2022-10-22T03:36:02.508Z,14.23
2022-10-22T03:38:30.067Z,11.40
2022-10-22T03:40:57.713Z,12.07
2022-10-22T03:43:25.104Z,12.95
2022-10-22T03:45:52.449Z,13.90
2022-10-22T03:48:20.126Z,12.20
2022-10-22T03:50:47.418Z,12.30
2022-10-22T03:53:14.694Z,14.50
2022-10-22T03:55:42.380Z,12.55
2022-10-22T03:58:09.716Z,10.63
2022-10-22T04:00:37.080Z,10.00
2022-10-22T04:03:04.636Z,10.73
2022-10-22T04:05:34.843Z,12.77
2022-10-22T04:08:02.125Z,12.00
2022-10-22T04:10:29.750Z,11.90
2022-10-22T04:12:57.047Z,14.90
2022-10-22T04:15:26.800Z,15.55
2022-10-22T04:17:54.752Z,14.98
2022-10-22T04:20:22.038Z,14.80
2022-10-22T04:22:49.379Z,11.73
2022-10-22T04:25:16.926Z,14.40
2022-10-22T04:27:44.235Z,14.40
2022-10-22T04:30:12.061Z,14.63
2022-10-22T04:32:39.620Z,13.43
2022-10-22T04:35:07.339Z,17.27
2022-10-22T04:37:34.664Z,17.02
2022-10-22T04:40:02.222Z,20.88
2022-10-22T04:42:29.535Z,28.15
2022-10-22T04:44:56.859Z,21.48
2022-10-22T04:47:24.523Z,16.58
2022-10-22T04:49:51.832Z,17.08
2022-10-22T04:52:19.171Z,17.98
2022-10-22T04:54:46.955Z,14.50
2022-10-22T04:57:14.514Z,15.90
2022-10-22T04:59:41.845Z,11.52
2022-10-22T05:02:09.406Z,11.85
2022-10-22T05:04:36.690Z,14.18
2022-10-22T05:07:03.963Z,14.87
2022-10-22T05:09:31.512Z,11.12
2022-10-22T05:11:58.827Z,15.05
2022-10-22T05:14:26.208Z,15.10
2022-10-22T05:16:54.194Z,13.50
2022-10-22T05:19:24.350Z,13.27
2022-10-22T05:21:53.038Z,13.15
2022-10-22T05:24:20.987Z,12.37
2022-10-22T05:26:52.426Z,20.25
2022-10-22T05:29:20.372Z,36.72
2022-10-22T05:31:47.920Z,282.40
2022-10-22T05:34:15.498Z,265.55
2022-10-22T05:36:42.974Z,234.98
2022-10-22T05:39:10.576Z,106.47
2022-10-22T05:41:37.879Z,86.65
2022-10-22T05:44:05.512Z,77.62
2022-10-22T05:46:35.236Z,69.45
2022-10-22T05:49:05.109Z,71.60
2022-10-22T05:51:34.918Z,58.53
2022-10-22T05:54:04.250Z,38.20
2022-10-22T05:56:32.292Z,32.45
2022-10-22T05:59:00.616Z,30.35
2022-10-22T06:01:29.844Z,29.48
2022-10-22T06:03:59.940Z,30.33
2022-10-22T06:06:36.815Z,31.00
2022-10-22T06:09:10.396Z,31.25
2022-10-22T06:11:37.971Z,26.48
2022-10-22T06:14:05.532Z,34.40
2022-10-22T06:16:32.952Z,30.85
2022-10-22T06:19:03.610Z,27.48
2022-10-22T06:21:31.561Z,30.40
2022-10-22T06:24:00.231Z,33.47
2022-10-22T06:26:27.930Z,43.42
2022-10-22T06:28:56.722Z,38.97
2022-10-22T06:31:25.587Z,36.33
2022-10-22T06:33:52.954Z,36.97
2022-10-22T06:36:23.368Z,33.40
2022-10-22T06:38:54.825Z,36.78
2022-10-22T06:41:25.781Z,28.83
2022-10-22T06:43:57.523Z,23.70
2022-10-22T06:46:26.149Z,24.42
2022-10-22T06:48:59.363Z,22.37
2022-10-22T06:51:28.025Z,17.35
2022-10-22T06:53:56.226Z,26.67
2022-10-22T06:56:25.833Z,20.83
2022-10-22T06:58:54.948Z,20.05
2022-10-22T07:01:28.699Z,27.45
2022-10-22T07:03:56.712Z,22.48
2022-10-22T07:06:25.675Z,20.17
2022-10-22T07:08:54.872Z,18.17
2022-10-22T07:11:25.486Z,20.92
2022-10-22T07:13:55.780Z,14.43
2022-10-22T07:16:28.044Z,15.80
2022-10-22T07:18:58.561Z,12.05
2022-10-22T07:21:26.184Z,13.40
2022-10-22T07:23:53.562Z,13.23
2022-10-22T07:26:20.952Z,12.55
2022-10-22T07:28:48.639Z,12.23
2022-10-22T07:31:16.720Z,28.85
2022-10-22T07:33:44.280Z,16.37
2022-10-22T07:36:17.480Z,13.38
2022-10-22T07:38:49.538Z,14.25
2022-10-22T07:43:44.875Z,15.73
2022-10-22T07:46:12.232Z,14.70
2022-10-22T07:48:39.835Z,10.55
2022-10-22T07:51:07.206Z,12.15
2022-10-22T07:53:35.021Z,12.73
2022-10-22T07:56:02.570Z,11.52
2022-10-22T07:58:30.046Z,11.07
2022-10-22T08:01:00.720Z,16.20
2022-10-22T08:03:29.120Z,12.30
2022-10-22T08:05:56.448Z,16.05
2022-10-22T08:08:27.076Z,9.32
2022-10-22T08:10:58.960Z,10.27
2022-10-22T08:13:27.402Z,14.98
2022-10-22T08:15:57.377Z,13.32
2022-10-22T08:18:25.893Z,13.23
2022-10-22T08:20:53.402Z,11.38
2022-10-22T08:23:24.476Z,10.75
2022-10-22T08:25:57.193Z,11.75
2022-10-22T08:28:24.760Z,12.57
2022-10-22T08:30:52.043Z,13.27
2022-10-22T08:33:19.673Z,12.57
2022-10-22T08:35:51.568Z,13.45
2022-10-22T08:38:19.259Z,17.42
2022-10-22T08:40:50.297Z,13.00
2022-10-22T08:43:36.536Z,9.98
2022-10-22T08:46:17.012Z,16.30
2022-10-22T08:48:56.033Z,12.85
2022-10-22T08:51:26.602Z,12.95
2022-10-22T08:54:13.735Z,16.70
2022-10-22T08:56:44.560Z,19.92
2022-10-22T08:59:27.336Z,14.30
2022-10-22T09:01:54.896Z,12.10
2022-10-22T09:04:36.753Z,17.58
2022-10-22T09:07:04.355Z,16.08
2022-10-22T09:09:35.161Z,17.02
2022-10-22T09:12:04.285Z,12.60
2022-10-22T09:14:32.306Z,11.73
2022-10-22T09:17:21.714Z,13.43
2022-10-22T09:20:09.116Z,14.93
2022-10-22T09:23:00.861Z,12.18
2022-10-22T09:25:33.011Z,13.20
2022-10-22T09:28:00.294Z,12.13
2022-10-22T09:30:31.663Z,16.20
2022-10-22T09:33:09.488Z,13.75
2022-10-22T09:35:45.359Z,16.90
2022-10-22T09:38:15.304Z,14.85
2022-10-22T09:40:44.331Z,16.12
2022-10-22T09:43:13.825Z,16.00
2022-10-22T09:45:42.538Z,15.98
2022-10-22T09:48:12.135Z,14.52
2022-10-22T09:50:48.097Z,17.27
2022-10-22T09:53:22.866Z,18.52
2022-10-22T09:55:52.997Z,16.67
2022-10-22T09:58:20.988Z,15.48
2022-10-22T10:00:56.624Z,12.90
2022-10-22T10:03:26.598Z,13.52
2022-10-22T10:05:58.072Z,15.57
2022-10-22T10:08:27.614Z,19.85
2022-10-22T10:11:04.019Z,12.70
2022-10-22T10:13:43.761Z,20.70
2022-10-22T10:16:24.180Z,20.67
2022-10-22T10:18:51.610Z,18.20
2022-10-22T10:21:21.729Z,16.95
2022-10-22T10:24:05.848Z,16.90
2022-10-22T10:26:56.407Z,19.85
2022-10-22T10:29:46.143Z,17.02
2022-10-22T10:32:26.065Z,18.77
2022-10-22T10:35:11.413Z,21.15
2022-10-22T10:37:46.391Z,18.33
2022-10-22T10:40:33.352Z,17.73
2022-10-22T10:43:09.802Z,21.85
2022-10-22T10:45:58.324Z,22.25
2022-10-22T10:48:35.060Z,20.50
2022-10-22T10:51:46.257Z,19.67
2022-10-22T10:54:19.298Z,18.12
2022-10-22T10:56:58.568Z,17.45
2022-10-22T10:59:39.211Z,19.10
2022-10-22T11:02:31.597Z,18.33
2022-10-22T11:07:56.153Z,19.77
2022-10-22T11:10:37.343Z,19.92
2022-10-22T11:13:29.494Z,18.30
2022-10-22T11:16:27.348Z,21.20
2022-10-22T11:18:59.892Z,20.37
2022-10-22T11:21:41.961Z,22.65
2022-10-22T11:24:28.627Z,18.50
2022-10-22T11:27:19.383Z,16.37
2022-10-22T11:29:52.536Z,22.33
2022-10-22T11:32:21.331Z,23.27
2022-10-22T11:34:50.968Z,22.35
2022-10-22T11:37:18.728Z,20.02
2022-10-22T11:39:53.706Z,21.83
2022-10-22T11:42:34.468Z,19.55
2022-10-22T11:45:04.529Z,21.40
2022-10-22T11:47:42.826Z,23.98
2022-10-22T11:50:22.791Z,16.77
2022-10-22T11:53:05.475Z,22.10
2022-10-22T11:55:34.520Z,20.08
2022-10-22T11:58:06.772Z,17.62
2022-10-22T12:00:54.544Z,25.33
2022-10-22T12:03:40.908Z,22.08
2022-10-22T12:06:15.637Z,19.95
2022-10-22T12:08:49.320Z,20.27
2022-10-22T12:11:24.224Z,19.70
2022-10-22T12:13:52.523Z,24.15
2022-10-22T12:16:32.202Z,21.58
2022-10-22T12:19:10.296Z,22.17
2022-10-22T12:21:39.181Z,16.98
2022-10-22T12:24:07.033Z,18.35
2022-10-22T12:26:34.895Z,20.15
2022-10-22T12:29:05.956Z,18.12
2022-10-22T12:31:38.359Z,17.23
2022-10-22T12:34:06.360Z,22.58
2022-10-22T12:36:35.763Z,19.70
2022-10-22T12:39:09.016Z,23.25
2022-10-22T12:41:38.381Z,20.42
2022-10-22T12:44:06.011Z,23.42
2022-10-22T12:46:35.051Z,24.70
2022-10-22T12:49:05.415Z,18.67
2022-10-22T12:51:33.156Z,25.92
2022-10-22T12:54:08.488Z,19.23
2022-10-22T12:56:37.302Z,24.80
2022-10-22T12:59:16.796Z,28.27
2022-10-22T13:01:44.528Z,19.35
2022-10-22T13:04:33.427Z,23.52
2022-10-22T13:07:15.957Z,21.62
2022-10-22T13:10:01.045Z,28.20
2022-10-22T13:12:35.510Z,27.27
2022-10-22T13:15:21.058Z,22.30
2022-10-22T13:17:49.772Z,23.20
2022-10-22T13:20:22.156Z,23.75
2022-10-22T13:23:00.931Z,28.62
2022-10-22T13:25:35.538Z,25.65
2022-10-22T13:28:18.347Z,23.45
2022-10-22T13:30:54.295Z,18.73
2022-10-22T13:33:26.393Z,27.42
2022-10-22T13:35:55.774Z,28.45
2022-10-22T13:38:25.239Z,22.60
2022-10-22T13:40:52.577Z,21.15
2022-10-22T13:43:20.448Z,27.00
2022-10-22T13:45:49.251Z,29.85
2022-10-22T13:48:19.146Z,25.73
2022-10-22T13:50:46.691Z,31.00
2022-10-22T13:53:25.682Z,21.75
2022-10-22T13:55:53.383Z,26.67
2022-10-22T13:58:24.626Z,24.10
2022-10-22T14:00:55.756Z,19.27
2022-10-22T14:03:30.425Z,18.90
2022-10-22T14:05:57.828Z,16.60
2022-10-22T14:08:26.526Z,18.15
2022-10-22T14:10:54.204Z,19.02
2022-10-22T14:13:21.542Z,22.33
2022-10-22T14:15:50.778Z,37.35
2022-10-22T14:18:25.574Z,27.60
2022-10-22T14:20:58.395Z,28.52
2022-10-22T14:23:28.702Z,20.10
2022-10-22T14:25:56.822Z,21.83
2022-10-22T14:28:24.159Z,19.15
2022-10-22T14:30:52.400Z,21.77
2022-10-22T14:33:28.807Z,22.65
2022-10-22T14:36:02.282Z,21.85
2022-10-22T14:38:29.802Z,20.12
2022-10-22T14:40:57.652Z,24.27
2022-10-22T14:43:31.007Z,21.10
2022-10-22T14:45:58.579Z,18.02
2022-10-22T14:48:25.881Z,19.85
2022-10-22T14:50:54.548Z,18.85
2022-10-22T14:53:22.118Z,16.33
2022-10-22T14:55:51.435Z,17.62
2022-10-22T14:58:18.781Z,24.33
2022-10-22T15:00:46.379Z,20.40
2022-10-22T15:03:13.771Z,20.08
2022-10-22T15:05:44.290Z,16.90
2022-10-22T15:08:14.177Z,20.97
2022-10-22T15:10:41.814Z,17.42
2022-10-22T15:13:09.479Z,16.33
2022-10-22T15:15:40.267Z,18.48
2022-10-22T15:18:07.655Z,19.08
2022-10-22T15:20:34.955Z,18.02
2022-10-22T15:23:02.602Z,17.95
2022-10-22T15:25:29.922Z,18.27
2022-10-22T15:28:01.808Z,23.75
2022-10-22T15:30:32.405Z,18.73
2022-10-22T15:32:59.695Z,20.27
2022-10-22T15:35:28.542Z,20.55
2022-10-22T15:37:56.279Z,15.18
2022-10-22T15:40:23.583Z,20.42
2022-10-22T15:42:50.862Z,21.08
2022-10-22T15:45:21.228Z,18.42
2022-10-22T15:47:48.991Z,17.73
2022-10-22T15:50:16.924Z,16.35
2022-10-22T15:52:44.526Z,21.85
2022-10-22T16:00:13.744Z,22.10
2022-10-22T16:02:42.605Z,22.73
2022-10-22T16:05:10.057Z,19.77
2022-10-22T16:07:37.404Z,21.73
2022-10-22T16:10:07.554Z,18.65
2022-10-22T16:12:35.975Z,19.48
2022-10-22T16:15:03.623Z,26.25
2022-10-22T16:17:31.173Z,29.00
2022-10-22T16:19:58.500Z,32.47
2022-10-22T16:22:25.802Z,33.45
2022-10-22T16:24:53.366Z,34.13
2022-10-22T16:27:20.901Z,28.73
2022-10-22T16:29:48.233Z,26.33
2022-10-22T16:32:16.753Z,29.30
2022-10-22T16:34:44.059Z,28.33
2022-10-22T16:37:11.380Z,23.50
2022-10-22T16:39:38.990Z,26.33
2022-10-22T16:42:06.462Z,20.08
2022-10-22T16:44:34.037Z,22.95
2022-10-22T16:47:01.628Z,22.50
2022-10-22T16:49:29.001Z,23.87
2022-10-22T16:51:56.353Z,22.98
2022-10-22T16:54:23.964Z,22.52
2022-10-22T16:56:51.281Z,21.65
2022-10-22T16:59:18.849Z,22.87
2022-10-22T17:01:46.415Z,24.15
2022-10-22T17:04:13.719Z,22.98
2022-10-22T17:06:41.068Z,24.80
2022-10-22T17:09:08.771Z,21.10
2022-10-22T17:11:39.158Z,21.60
2022-10-22T17:14:09.090Z,24.75
2022-10-22T17:16:36.575Z,23.23
2022-10-22T17:19:04.350Z,27.30
2022-10-22T17:21:31.965Z,28.12
2022-10-22T17:23:59.296Z,20.17
2022-10-22T17:26:27.939Z,22.40
2022-10-22T17:28:55.565Z,21.23
2022-10-22T17:31:28.099Z,20.90
2022-10-22T17:33:56.382Z,27.37
2022-10-22T17:36:24.696Z,23.75
2022-10-22T17:38:57.460Z,26.75
2022-10-22T17:41:27.888Z,25.65
2022-10-22T17:43:56.311Z,22.77
2022-10-22T17:46:25.261Z,22.40
2022-10-22T17:48:54.922Z,23.42
2022-10-22T17:51:23.480Z,24.58
2022-10-22T17:53:50.835Z,22.80
2022-10-22T17:56:23.157Z,25.73
2022-10-22T17:58:51.036Z,28.73
2022-10-22T18:01:23.003Z,24.70
2022-10-22T18:03:52.193Z,22.37
2022-10-22T18:06:19.703Z,29.92
2022-10-22T18:08:47.173Z,26.75
2022-10-22T18:11:18.103Z,23.92
2022-10-22T18:13:49.627Z,25.90
2022-10-22T18:16:17.796Z,24.37
2022-10-22T18:18:47.194Z,24.23
2022-10-22T18:21:16.015Z,26.25
2022-10-22T18:23:43.635Z,26.83
2022-10-22T18:26:10.923Z,27.65
2022-10-22T18:28:38.302Z,31.45
2022-10-22T18:31:10.820Z,34.28
2022-10-22T18:33:38.158Z,36.28
2022-10-22T18:36:07.907Z,30.77
2022-10-22T18:38:35.425Z,30.83
2022-10-22T18:41:02.735Z,30.70
2022-10-22T18:43:30.324Z,28.00
2022-10-22T18:45:57.646Z,24.60
2022-10-22T18:48:24.992Z,26.05
2022-10-22T18:51:00.923Z,27.67
2022-10-22T18:53:29.673Z,33.05
2022-10-22T18:55:57.336Z,26.73
2022-10-22T18:58:24.656Z,30.88
2022-10-22T19:00:52.028Z,26.95
2022-10-22T19:03:19.668Z,26.10
2022-10-22T19:05:49.829Z,24.90
2022-10-22T19:08:18.142Z,22.05
2022-10-22T19:10:46.804Z,24.50
2022-10-22T19:13:16.072Z,25.37
2022-10-22T19:15:43.495Z,24.63
2022-10-22T19:18:11.326Z,26.48
2022-10-22T19:20:38.946Z,24.77
2022-10-22T19:23:07.400Z,23.67
2022-10-22T19:25:34.975Z,24.63
2022-10-22T19:28:02.311Z,28.00
2022-10-22T19:30:29.854Z,23.02
2022-10-22T19:32:57.485Z,25.85
2022-10-22T19:35:24.776Z,26.02
2022-10-22T19:37:52.215Z,30.62
2022-10-22T19:40:19.995Z,29.45
2022-10-22T19:42:50.348Z,31.62
2022-10-22T19:45:18.212Z,40.88
2022-10-22T19:47:45.818Z,56.37
2022-10-22T19:50:13.147Z,52.65
2022-10-22T19:52:40.779Z,45.55
2022-10-22T19:55:10.034Z,42.08
2022-10-22T19:57:38.811Z,36.90
2022-10-22T20:00:06.817Z,29.02
2022-10-22T20:02:38.166Z,29.75
2022-10-22T20:05:06.251Z,31.02
2022-10-22T20:07:33.746Z,30.58
2022-10-22T20:10:01.057Z,36.35
2022-10-22T20:12:28.607Z,29.10
2022-10-22T20:14:55.982Z,27.08
2022-10-22T20:17:23.305Z,28.30
2022-10-22T20:19:50.924Z,27.52
2022-10-22T20:22:18.930Z,26.90
2022-10-22T20:24:46.352Z,26.50
2022-10-22T20:27:13.994Z,26.98
2022-10-22T20:29:41.364Z,28.25
2022-10-22T20:32:08.954Z,24.52
2022-10-22T20:34:37.147Z,25.42
2022-10-22T20:37:04.438Z,24.12
2022-10-22T20:39:32.054Z,29.10
2022-10-22T20:41:59.724Z,29.48
2022-10-22T20:44:27.059Z,25.73
2022-10-22T20:46:54.723Z,26.58
2022-10-22T20:49:22.329Z,28.30
2022-10-22T20:51:49.644Z,30.55
2022-10-22T20:54:17.568Z,27.13
2022-10-22T20:56:45.349Z,27.98
2022-10-22T20:59:12.742Z,26.83
2022-10-22T21:01:51.244Z,28.98
2022-10-22T21:04:20.260Z,29.15
2022-10-22T21:06:49.820Z,26.33
2022-10-22T21:09:17.234Z,25.58
2022-10-22T21:11:45.195Z,25.20
2022-10-22T21:14:14.529Z,23.60
2022-10-22T21:16:44.248Z,25.73
2022-10-22T21:19:12.037Z,26.40
2022-10-22T21:21:39.355Z,28.48
2022-10-22T21:24:07.078Z,26.12
2022-10-22T21:26:38.824Z,27.60
2022-10-22T21:29:06.535Z,27.50
2022-10-22T21:31:34.123Z,30.23
2022-10-22T21:34:01.877Z,26.30
2022-10-22T21:36:29.163Z,27.02
2022-10-22T21:38:56.707Z,26.35
2022-10-22T21:41:24.429Z,24.92
2022-10-22T21:43:51.790Z,27.85
2022-10-22T21:46:21.903Z,27.08
2022-10-22T21:48:57.552Z,24.17
2022-10-22T21:51:25.649Z,23.65
2022-10-22T21:53:53.632Z,26.30
2022-10-22T21:56:23.667Z,26.42
2022-10-22T21:58:51.000Z,25.00
2022-10-22T22:01:18.768Z,26.12
2022-10-22T22:03:50.716Z,25.12
2022-10-22T22:06:21.421Z,25.88
2022-10-22T22:08:51.763Z,30.13
2022-10-22T22:11:25.015Z,28.67
2022-10-22T22:13:55.727Z,29.15
2022-10-22T22:16:28.802Z,28.73
2022-10-22T22:18:59.283Z,30.92
2022-10-22T22:21:26.677Z,33.17
2022-10-22T22:23:54.255Z,30.70
2022-10-22T22:26:28.626Z,29.75
2022-10-22T22:28:58.483Z,32.50
2022-10-22T22:31:31.013Z,30.58
2022-10-22T22:34:07.145Z,34.67
2022-10-22T22:36:40.033Z,31.42
2022-10-22T22:39:10.377Z,28.17
2022-10-22T22:41:37.978Z,30.88
2022-10-22T22:44:05.644Z,29.67
2022-10-22T22:46:33.035Z,31.37
2022-10-22T22:49:00.610Z,35.90
2022-10-22T22:51:27.940Z,34.03
2022-10-22T22:53:57.993Z,33.10
2022-10-22T22:56:27.973Z,31.80
2022-10-22T22:58:55.735Z,33.05
2022-10-22T23:01:25.948Z,31.55
2022-10-22T23:03:59.176Z,31.45
2022-10-22T23:06:29.431Z,30.42
2022-10-22T23:08:57.791Z,32.20
2022-10-22T23:11:26.371Z,35.22
2022-10-22T23:13:58.845Z,31.85
2022-10-22T23:16:29.021Z,30.35
2022-10-22T23:18:56.915Z,30.85
2022-10-22T23:21:26.980Z,28.00
2022-10-22T23:23:56.757Z,28.52
2022-10-22T23:26:45.243Z,26.17
2022-10-22T23:29:19.467Z,29.30
2022-10-22T23:31:47.791Z,29.00
2022-10-22T23:36:51.611Z,27.92
2022-10-22T23:39:22.187Z,29.75
2022-10-22T23:41:49.869Z,27.73
2022-10-22T23:44:17.229Z,27.40
2022-10-22T23:46:44.867Z,25.55
2022-10-22T23:49:12.247Z,23.12
2022-10-22T23:51:39.928Z,28.40
2022-10-22T23:54:13.054Z,25.70
2022-10-22T23:56:40.745Z,26.52
2022-10-22T23:59:08.839Z,24.48
